sensor_id;sensor_type;location;lat;lon;timestamp;P1;durP1;ratioP1;P2;durP2;ratioP2
17830;SDS011;9040;51.332;12.406;2022-08-19T00:00:08;35.57;;;29.10;;
17830;SDS011;9040;51.332;12.406;2022-08-19T00:02:40;39.60;;;30.60;;
17830;SDS011;9040;51.332;12.406;2022-08-19T00:05:08;38.47;;;28.00;;
17830;SDS011;9040;51.332;12.406;2022-08-19T00:07:37;40.07;;;30.63;;
17830;SDS011;9040;51.332;12.406;2022-08-19T00:10:04;34.77;;;28.20;;
17830;SDS011;9040;51.332;12.406;2022-08-19T00:12:33;34.17;;;28.93;;
17830;SDS011;9040;51.332;12.406;2022-08-19T00:15:02;40.60;;;27.50;;
17830;SDS011;9040;51.332;12.406;2022-08-19T00:17:30;36.80;;;30.00;;
17830;SDS011;9040;51.332;12.406;2022-08-19T00:19:56;39.97;;;27.83;;
17830;SDS011;9040;51.332;12.406;2022-08-19T00:22:24;40.37;;;29.00;;
17830;SDS011;9040;51.332;12.406;2022-08-19T00:24:53;36.37;;;29.63;;
17830;SDS011;9040;51.332;12.406;2022-08-19T00:27:20;41.30;;;30.83;;
17830;SDS011;9040;51.332;12.406;2022-08-19T00:29:49;50.23;;;30.10;;
17830;SDS011;9040;51.332;12.406;2022-08-19T00:32:16;39.43;;;33.60;;
17830;SDS011;9040;51.332;12.406;2022-08-19T00:34:43;47.83;;;32.40;;
17830;SDS011;9040;51.332;12.406;2022-08-19T00:37:10;43.30;;;32.90;;
17830;SDS011;9040;51.332;12.406;2022-08-19T00:39:37;45.40;;;31.10;;
17830;SDS011;9040;51.332;12.406;2022-08-19T00:42:04;46.53;;;32.80;;
17830;SDS011;9040;51.332;12.406;2022-08-19T00:44:31;49.20;;;34.03;;
17830;SDS011;9040;51.332;12.406;2022-08-19T00:46:59;51.73;;;34.70;;
17830;SDS011;9040;51.332;12.406;2022-08-19T00:49:27;47.37;;;35.87;;
17830;SDS011;9040;51.332;12.406;2022-08-19T00:51:59;48.60;;;34.77;;
17830;SDS011;9040;51.332;12.406;2022-08-19T00:54:29;47.10;;;35.37;;
17830;SDS011;9040;51.332;12.406;2022-08-19T00:56:58;45.83;;;37.50;;
17830;SDS011;9040;51.332;12.406;2022-08-19T00:59:25;48.17;;;37.03;;
17830;SDS011;9040;51.332;12.406;2022-08-19T01:01:54;51.10;;;38.30;;
17830;SDS011;9040;51.332;12.406;2022-08-19T01:04:22;52.13;;;36.73;;
17830;SDS011;9040;51.332;12.406;2022-08-19T01:06:49;61.93;;;40.57;;
17830;SDS011;9040;51.332;12.406;2022-08-19T01:09:16;48.30;;;37.63;;
17830;SDS011;9040;51.332;12.406;2022-08-19T01:11:43;55.33;;;42.17;;
17830;SDS011;9040;51.332;12.406;2022-08-19T01:14:11;59.67;;;39.40;;
17830;SDS011;9040;51.332;12.406;2022-08-19T01:16:38;51.67;;;39.20;;
17830;SDS011;9040;51.332;12.406;2022-08-19T01:19:09;66.30;;;40.60;;
17830;SDS011;9040;51.332;12.406;2022-08-19T01:21:47;61.90;;;42.20;;
17830;SDS011;9040;51.332;12.406;2022-08-19T01:24:19;51.77;;;40.57;;
17830;SDS011;9040;51.332;12.406;2022-08-19T01:26:46;55.03;;;41.17;;
17830;SDS011;9040;51.332;12.406;2022-08-19T01:29:14;57.07;;;41.90;;
17830;SDS011;9040;51.332;12.406;2022-08-19T01:31:41;52.10;;;39.77;;
17830;SDS011;9040;51.332;12.406;2022-08-19T01:34:08;64.83;;;40.50;;
17830;SDS011;9040;51.332;12.406;2022-08-19T01:36:36;57.63;;;40.73;;
17830;SDS011;9040;51.332;12.406;2022-08-19T01:39:08;54.63;;;41.70;;
17830;SDS011;9040;51.332;12.406;2022-08-19T01:41:38;53.70;;;41.27;;
17830;SDS011;9040;51.332;12.406;2022-08-19T01:44:05;56.60;;;42.20;;
17830;SDS011;9040;51.332;12.406;2022-08-19T01:46:33;63.50;;;42.10;;
17830;SDS011;9040;51.332;12.406;2022-08-19T01:49:01;60.43;;;42.90;;
17830;SDS011;9040;51.332;12.406;2022-08-19T01:51:29;62.87;;;43.43;;
17830;SDS011;9040;51.332;12.406;2022-08-19T01:53:56;57.47;;;43.33;;
17830;SDS011;9040;51.332;12.406;2022-08-19T01:56:24;58.17;;;43.90;;
17830;SDS011;9040;51.332;12.406;2022-08-19T01:58:53;52.30;;;43.40;;
17830;SDS011;9040;51.332;12.406;2022-08-19T02:01:21;61.07;;;44.10;;
17830;SDS011;9040;51.332;12.406;2022-08-19T02:03:48;59.23;;;43.40;;
17830;SDS011;9040;51.332;12.406;2022-08-19T02:06:16;60.93;;;43.67;;
17830;SDS011;9040;51.332;12.406;2022-08-19T02:08:43;53.03;;;40.93;;
17830;SDS011;9040;51.332;12.406;2022-08-19T02:11:18;59.40;;;42.30;;
17830;SDS011;9040;51.332;12.406;2022-08-19T02:13:47;62.40;;;42.77;;
17830;SDS011;9040;51.332;12.406;2022-08-19T02:16:16;60.63;;;44.03;;
17830;SDS011;9040;51.332;12.406;2022-08-19T02:18:44;56.43;;;43.40;;
17830;SDS011;9040;51.332;12.406;2022-08-19T02:21:13;62.80;;;41.50;;
17830;SDS011;9040;51.332;12.406;2022-08-19T02:23:40;55.43;;;43.77;;
17830;SDS011;9040;51.332;12.406;2022-08-19T02:26:07;54.70;;;41.80;;
17830;SDS011;9040;51.332;12.406;2022-08-19T02:28:35;49.47;;;39.67;;
17830;SDS011;9040;51.332;12.406;2022-08-19T02:31:02;52.30;;;38.83;;
17830;SDS011;9040;51.332;12.406;2022-08-19T02:33:35;59.93;;;40.37;;
17830;SDS011;9040;51.332;12.406;2022-08-19T02:36:03;49.40;;;39.77;;
17830;SDS011;9040;51.332;12.406;2022-08-19T02:38:30;51.80;;;37.40;;
17830;SDS011;9040;51.332;12.406;2022-08-19T02:40:58;52.67;;;38.10;;
17830;SDS011;9040;51.332;12.406;2022-08-19T02:43:28;49.17;;;37.47;;
17830;SDS011;9040;51.332;12.406;2022-08-19T02:45:56;49.90;;;37.73;;
17830;SDS011;9040;51.332;12.406;2022-08-19T02:48:24;42.07;;;33.30;;
17830;SDS011;9040;51.332;12.406;2022-08-19T02:50:53;43.67;;;35.40;;
17830;SDS011;9040;51.332;12.406;2022-08-19T02:53:21;48.27;;;36.87;;
17830;SDS011;9040;51.332;12.406;2022-08-19T02:55:49;50.07;;;33.00;;
17830;SDS011;9040;51.332;12.406;2022-08-19T02:58:17;47.63;;;33.70;;
17830;SDS011;9040;51.332;12.406;2022-08-19T03:00:46;40.20;;;33.73;;
17830;SDS011;9040;51.332;12.406;2022-08-19T03:03:15;44.10;;;31.07;;
17830;SDS011;9040;51.332;12.406;2022-08-19T03:05:43;39.40;;;31.23;;
17830;SDS011;9040;51.332;12.406;2022-08-19T03:08:11;34.97;;;29.93;;
17830;SDS011;9040;51.332;12.406;2022-08-19T03:10:40;37.60;;;29.50;;
17830;SDS011;9040;51.332;12.406;2022-08-19T03:13:10;38.20;;;29.73;;
17830;SDS011;9040;51.332;12.406;2022-08-19T03:15:41;31.90;;;28.07;;
17830;SDS011;9040;51.332;12.406;2022-08-19T03:18:09;33.60;;;28.23;;
17830;SDS011;9040;51.332;12.406;2022-08-19T03:20:40;32.47;;;25.87;;
17830;SDS011;9040;51.332;12.406;2022-08-19T03:23:08;29.87;;;25.37;;
17830;SDS011;9040;51.332;12.406;2022-08-19T03:25:38;32.37;;;26.37;;
17830;SDS011;9040;51.332;12.406;2022-08-19T03:28:08;28.67;;;24.30;;
17830;SDS011;9040;51.332;12.406;2022-08-19T03:30:35;28.30;;;23.37;;
17830;SDS011;9040;51.332;12.406;2022-08-19T03:33:02;29.30;;;24.10;;
17830;SDS011;9040;51.332;12.406;2022-08-19T03:35:29;32.30;;;24.57;;
17830;SDS011;9040;51.332;12.406;2022-08-19T03:37:56;26.37;;;22.77;;
17830;SDS011;9040;51.332;12.406;2022-08-19T03:40:24;28.67;;;24.00;;
17830;SDS011;9040;51.332;12.406;2022-08-19T03:42:53;24.63;;;20.43;;
17830;SDS011;9040;51.332;12.406;2022-08-19T03:45:20;36.70;;;22.60;;
17830;SDS011;9040;51.332;12.406;2022-08-19T03:47:46;30.63;;;23.67;;
17830;SDS011;9040;51.332;12.406;2022-08-19T03:50:13;27.17;;;22.93;;
17830;SDS011;9040;51.332;12.406;2022-08-19T03:52:40;24.50;;;21.83;;
17830;SDS011;9040;51.332;12.406;2022-08-19T03:55:08;29.00;;;23.07;;
17830;SDS011;9040;51.332;12.406;2022-08-19T03:57:35;29.93;;;23.00;;
17830;SDS011;9040;51.332;12.406;2022-08-19T04:00:03;28.17;;;21.50;;
17830;SDS011;9040;51.332;12.406;2022-08-19T04:02:32;40.03;;;23.13;;
17830;SDS011;9040;51.332;12.406;2022-08-19T04:04:59;28.87;;;24.10;;
17830;SDS011;9040;51.332;12.406;2022-08-19T04:07:26;27.23;;;22.40;;
17830;SDS011;9040;51.332;12.406;2022-08-19T04:09:53;26.50;;;23.30;;
17830;SDS011;9040;51.332;12.406;2022-08-19T04:12:27;24.37;;;21.77;;
17830;SDS011;9040;51.332;12.406;2022-08-19T04:14:54;27.83;;;23.17;;
17830;SDS011;9040;51.332;12.406;2022-08-19T04:17:22;29.70;;;23.97;;
17830;SDS011;9040;51.332;12.406;2022-08-19T04:19:50;26.50;;;22.37;;
17830;SDS011;9040;51.332;12.406;2022-08-19T04:22:17;30.87;;;22.93;;
17830;SDS011;9040;51.332;12.406;2022-08-19T04:24:44;28.80;;;24.80;;
17830;SDS011;9040;51.332;12.406;2022-08-19T04:27:11;27.40;;;23.40;;
17830;SDS011;9040;51.332;12.406;2022-08-19T04:29:38;30.40;;;26.50;;
17830;SDS011;9040;51.332;12.406;2022-08-19T04:32:06;34.80;;;27.47;;
17830;SDS011;9040;51.332;12.406;2022-08-19T04:34:34;31.03;;;27.10;;
17830;SDS011;9040;51.332;12.406;2022-08-19T04:37:01;32.33;;;28.77;;
17830;SDS011;9040;51.332;12.406;2022-08-19T04:39:38;36.47;;;30.97;;
17830;SDS011;9040;51.332;12.406;2022-08-19T04:42:22;37.53;;;32.50;;
17830;SDS011;9040;51.332;12.406;2022-08-19T04:45:05;41.13;;;34.60;;
17830;SDS011;9040;51.332;12.406;2022-08-19T04:47:34;41.90;;;32.30;;
17830;SDS011;9040;51.332;12.406;2022-08-19T04:50:03;39.53;;;31.80;;
17830;SDS011;9040;51.332;12.406;2022-08-19T04:52:32;46.27;;;35.10;;
17830;SDS011;9040;51.332;12.406;2022-08-19T04:54:59;40.20;;;35.20;;
17830;SDS011;9040;51.332;12.406;2022-08-19T04:57:26;39.40;;;34.50;;
17830;SDS011;9040;51.332;12.406;2022-08-19T04:59:53;44.00;;;35.53;;
17830;SDS011;9040;51.332;12.406;2022-08-19T05:02:21;40.63;;;34.43;;
17830;SDS011;9040;51.332;12.406;2022-08-19T05:04:50;44.50;;;35.87;;
17830;SDS011;9040;51.332;12.406;2022-08-19T05:07:18;50.90;;;36.70;;
17830;SDS011;9040;51.332;12.406;2022-08-19T05:09:45;51.20;;;38.50;;
17830;SDS011;9040;51.332;12.406;2022-08-19T05:12:12;55.23;;;37.47;;
17830;SDS011;9040;51.332;12.406;2022-08-19T05:14:39;47.50;;;37.77;;
17830;SDS011;9040;51.332;12.406;2022-08-19T05:17:06;51.50;;;40.77;;
17830;SDS011;9040;51.332;12.406;2022-08-19T05:19:33;47.13;;;37.77;;
17830;SDS011;9040;51.332;12.406;2022-08-19T05:22:18;51.40;;;41.13;;
17830;SDS011;9040;51.332;12.406;2022-08-19T05:25:05;46.93;;;39.07;;
17830;SDS011;9040;51.332;12.406;2022-08-19T05:27:33;51.83;;;40.30;;
17830;SDS011;9040;51.332;12.406;2022-08-19T05:30:00;51.53;;;38.83;;
17830;SDS011;9040;51.332;12.406;2022-08-19T05:32:27;51.13;;;40.70;;
17830;SDS011;9040;51.332;12.406;2022-08-19T05:34:54;50.33;;;39.60;;
17830;SDS011;9040;51.332;12.406;2022-08-19T05:37:23;53.20;;;40.73;;
17830;SDS011;9040;51.332;12.406;2022-08-19T05:39:51;59.23;;;43.20;;
17830;SDS011;9040;51.332;12.406;2022-08-19T05:42:19;55.83;;;42.97;;
17830;SDS011;9040;51.332;12.406;2022-08-19T05:44:48;67.77;;;44.47;;
17830;SDS011;9040;51.332;12.406;2022-08-19T05:47:15;64.87;;;44.97;;
17830;SDS011;9040;51.332;12.406;2022-08-19T05:49:44;60.40;;;46.77;;
17830;SDS011;9040;51.332;12.406;2022-08-19T05:52:12;69.70;;;47.30;;
17830;SDS011;9040;51.332;12.406;2022-08-19T05:54:43;69.33;;;48.77;;
17830;SDS011;9040;51.332;12.406;2022-08-19T05:57:13;65.83;;;47.30;;
17830;SDS011;9040;51.332;12.406;2022-08-19T05:59:40;75.40;;;51.53;;
17830;SDS011;9040;51.332;12.406;2022-08-19T06:02:07;74.23;;;50.67;;
17830;SDS011;9040;51.332;12.406;2022-08-19T06:04:34;66.97;;;48.50;;
17830;SDS011;9040;51.332;12.406;2022-08-19T06:07:01;68.73;;;49.23;;
17830;SDS011;9040;51.332;12.406;2022-08-19T06:09:28;68.77;;;48.33;;
17830;SDS011;9040;51.332;12.406;2022-08-19T06:11:57;63.10;;;47.97;;
17830;SDS011;9040;51.332;12.406;2022-08-19T06:14:28;58.93;;;46.43;;
17830;SDS011;9040;51.332;12.406;2022-08-19T06:16:57;67.40;;;48.30;;
17830;SDS011;9040;51.332;12.406;2022-08-19T06:19:26;76.63;;;48.77;;
17830;SDS011;9040;51.332;12.406;2022-08-19T06:21:55;65.00;;;49.80;;
17830;SDS011;9040;51.332;12.406;2022-08-19T06:24:24;68.77;;;51.30;;
17830;SDS011;9040;51.332;12.406;2022-08-19T06:26:53;65.30;;;48.17;;
17830;SDS011;9040;51.332;12.406;2022-08-19T06:29:23;62.27;;;49.80;;
17830;SDS011;9040;51.332;12.406;2022-08-19T06:31:53;63.47;;;48.47;;
17830;SDS011;9040;51.332;12.406;2022-08-19T06:34:22;74.97;;;50.37;;
17830;SDS011;9040;51.332;12.406;2022-08-19T06:36:49;65.63;;;49.77;;
17830;SDS011;9040;51.332;12.406;2022-08-19T06:39:20;63.83;;;45.00;;
17830;SDS011;9040;51.332;12.406;2022-08-19T06:41:49;68.67;;;47.57;;
17830;SDS011;9040;51.332;12.406;2022-08-19T06:44:17;61.73;;;46.40;;
17830;SDS011;9040;51.332;12.406;2022-08-19T06:46:47;69.77;;;47.10;;
17830;SDS011;9040;51.332;12.406;2022-08-19T06:49:14;63.93;;;49.00;;
17830;SDS011;9040;51.332;12.406;2022-08-19T06:51:42;64.73;;;45.67;;
17830;SDS011;9040;51.332;12.406;2022-08-19T06:54:13;66.43;;;47.73;;
17830;SDS011;9040;51.332;12.406;2022-08-19T06:56:41;63.60;;;44.23;;
17830;SDS011;9040;51.332;12.406;2022-08-19T06:59:11;77.63;;;49.67;;
17830;SDS011;9040;51.332;12.406;2022-08-19T07:01:41;77.43;;;50.53;;
17830;SDS011;9040;51.332;12.406;2022-08-19T07:04:13;56.90;;;47.47;;
17830;SDS011;9040;51.332;12.406;2022-08-19T07:06:41;78.43;;;49.83;;
17830;SDS011;9040;51.332;12.406;2022-08-19T07:09:09;67.80;;;50.10;;
17830;SDS011;9040;51.332;12.406;2022-08-19T07:11:37;66.67;;;49.63;;
17830;SDS011;9040;51.332;12.406;2022-08-19T07:14:04;64.43;;;48.50;;
17830;SDS011;9040;51.332;12.406;2022-08-19T07:16:31;65.17;;;45.00;;
17830;SDS011;9040;51.332;12.406;2022-08-19T07:18:58;74.10;;;49.67;;
17830;SDS011;9040;51.332;12.406;2022-08-19T07:21:27;78.23;;;49.83;;
17830;SDS011;9040;51.332;12.406;2022-08-19T07:23:55;72.23;;;45.30;;
17830;SDS011;9040;51.332;12.406;2022-08-19T07:26:24;71.07;;;43.60;;
17830;SDS011;9040;51.332;12.406;2022-08-19T07:28:53;71.60;;;44.77;;
17830;SDS011;9040;51.332;12.406;2022-08-19T07:31:21;65.40;;;45.37;;
17830;SDS011;9040;51.332;12.406;2022-08-19T07:33:50;72.33;;;41.77;;
17830;SDS011;9040;51.332;12.406;2022-08-19T07:36:20;63.63;;;43.60;;
17830;SDS011;9040;51.332;12.406;2022-08-19T07:38:50;66.73;;;43.60;;
17830;SDS011;9040;51.332;12.406;2022-08-19T07:41:19;65.50;;;46.00;;
17830;SDS011;9040;51.332;12.406;2022-08-19T07:43:48;54.80;;;40.23;;
17830;SDS011;9040;51.332;12.406;2022-08-19T07:46:16;62.60;;;42.90;;
17830;SDS011;9040;51.332;12.406;2022-08-19T07:48:45;63.50;;;47.07;;
17830;SDS011;9040;51.332;12.406;2022-08-19T07:51:14;64.27;;;44.80;;
17830;SDS011;9040;51.332;12.406;2022-08-19T07:53:43;61.77;;;43.00;;
17830;SDS011;9040;51.332;12.406;2022-08-19T07:56:12;68.73;;;44.37;;
17830;SDS011;9040;51.332;12.406;2022-08-19T07:58:41;65.10;;;41.43;;
17830;SDS011;9040;51.332;12.406;2022-08-19T08:01:11;65.07;;;44.13;;
17830;SDS011;9040;51.332;12.406;2022-08-19T08:03:39;59.90;;;40.80;;
17830;SDS011;9040;51.332;12.406;2022-08-19T08:06:23;55.60;;;40.70;;
17830;SDS011;9040;51.332;12.406;2022-08-19T08:09:08;72.63;;;42.87;;
17830;SDS011;9040;51.332;12.406;2022-08-19T08:11:48;53.73;;;38.83;;
17830;SDS011;9040;51.332;12.406;2022-08-19T08:14:17;57.13;;;37.60;;
17830;SDS011;9040;51.332;12.406;2022-08-19T08:16:47;59.40;;;41.13;;
17830;SDS011;9040;51.332;12.406;2022-08-19T08:19:16;63.50;;;41.23;;
17830;SDS011;9040;51.332;12.406;2022-08-19T08:21:45;60.77;;;40.87;;
17830;SDS011;9040;51.332;12.406;2022-08-19T08:24:13;63.30;;;40.97;;
17830;SDS011;9040;51.332;12.406;2022-08-19T08:26:40;64.83;;;43.60;;
17830;SDS011;9040;51.332;12.406;2022-08-19T08:29:10;58.50;;;38.37;;
17830;SDS011;9040;51.332;12.406;2022-08-19T08:31:38;54.13;;;38.67;;
17830;SDS011;9040;51.332;12.406;2022-08-19T08:34:06;58.40;;;40.97;;
17830;SDS011;9040;51.332;12.406;2022-08-19T08:36:35;72.57;;;41.90;;
17830;SDS011;9040;51.332;12.406;2022-08-19T08:39:05;61.43;;;41.40;;
17830;SDS011;9040;51.332;12.406;2022-08-19T08:41:34;71.30;;;41.27;;
17830;SDS011;9040;51.332;12.406;2022-08-19T08:44:12;55.23;;;40.70;;
17830;SDS011;9040;51.332;12.406;2022-08-19T08:46:44;46.80;;;37.03;;
17830;SDS011;9040;51.332;12.406;2022-08-19T08:49:17;59.17;;;40.20;;
17830;SDS011;9040;51.332;12.406;2022-08-19T08:51:54;53.97;;;38.90;;
17830;SDS011;9040;51.332;12.406;2022-08-19T08:54:28;54.77;;;40.03;;
17830;SDS011;9040;51.332;12.406;2022-08-19T08:57:00;50.40;;;37.10;;
17830;SDS011;9040;51.332;12.406;2022-08-19T08:59:31;54.03;;;36.80;;
17830;SDS011;9040;51.332;12.406;2022-08-19T09:02:03;53.47;;;38.40;;
17830;SDS011;9040;51.332;12.406;2022-08-19T09:04:30;53.00;;;37.03;;
17830;SDS011;9040;51.332;12.406;2022-08-19T09:07:00;55.57;;;35.23;;
17830;SDS011;9040;51.332;12.406;2022-08-19T09:09:41;53.93;;;37.90;;
17830;SDS011;9040;51.332;12.406;2022-08-19T09:12:13;47.80;;;36.90;;
17830;SDS011;9040;51.332;12.406;2022-08-19T09:14:49;48.17;;;37.63;;
17830;SDS011;9040;51.332;12.406;2022-08-19T09:17:20;58.07;;;39.07;;
17830;SDS011;9040;51.332;12.406;2022-08-19T09:19:56;59.63;;;39.27;;
17830;SDS011;9040;51.332;12.406;2022-08-19T09:22:27;57.50;;;38.60;;
17830;SDS011;9040;51.332;12.406;2022-08-19T09:24:54;63.13;;;41.13;;
17830;SDS011;9040;51.332;12.406;2022-08-19T09:27:22;52.50;;;38.10;;
17830;SDS011;9040;51.332;12.406;2022-08-19T09:29:52;55.30;;;37.40;;
17830;SDS011;9040;51.332;12.406;2022-08-19T09:32:20;58.07;;;36.97;;
17830;SDS011;9040;51.332;12.406;2022-08-19T09:34:48;53.07;;;38.83;;
17830;SDS011;9040;51.332;12.406;2022-08-19T09:37:15;64.83;;;39.10;;
17830;SDS011;9040;51.332;12.406;2022-08-19T09:39:42;55.70;;;40.00;;
17830;SDS011;9040;51.332;12.406;2022-08-19T09:42:09;60.70;;;38.97;;
17830;SDS011;9040;51.332;12.406;2022-08-19T09:44:38;61.87;;;41.13;;
17830;SDS011;9040;51.332;12.406;2022-08-19T09:47:07;59.33;;;39.33;;
17830;SDS011;9040;51.332;12.406;2022-08-19T09:49:36;57.47;;;39.20;;
17830;SDS011;9040;51.332;12.406;2022-08-19T09:52:04;53.33;;;39.30;;
17830;SDS011;9040;51.332;12.406;2022-08-19T09:54:32;51.53;;;39.07;;
17830;SDS011;9040;51.332;12.406;2022-08-19T09:56:59;56.03;;;36.73;;
17830;SDS011;9040;51.332;12.406;2022-08-19T09:59:27;57.03;;;38.03;;
17830;SDS011;9040;51.332;12.406;2022-08-19T10:01:55;54.10;;;36.57;;
17830;SDS011;9040;51.332;12.406;2022-08-19T10:04:24;44.37;;;34.47;;
17830;SDS011;9040;51.332;12.406;2022-08-19T10:07:11;43.23;;;33.47;;
17830;SDS011;9040;51.332;12.406;2022-08-19T10:09:38;46.77;;;32.20;;
17830;SDS011;9040;51.332;12.406;2022-08-19T10:12:06;47.03;;;34.30;;
17830;SDS011;9040;51.332;12.406;2022-08-19T10:14:33;43.10;;;33.03;;
17830;SDS011;9040;51.332;12.406;2022-08-19T10:17:01;37.47;;;29.60;;
17830;SDS011;9040;51.332;12.406;2022-08-19T10:19:30;42.00;;;31.30;;
17830;SDS011;9040;51.332;12.406;2022-08-19T10:22:01;49.40;;;30.47;;
17830;SDS011;9040;51.332;12.406;2022-08-19T10:24:29;44.60;;;30.27;;
17830;SDS011;9040;51.332;12.406;2022-08-19T10:26:56;39.13;;;28.90;;
17830;SDS011;9040;51.332;12.406;2022-08-19T10:29:23;38.73;;;29.67;;
17830;SDS011;9040;51.332;12.406;2022-08-19T10:31:53;44.47;;;27.90;;
17830;SDS011;9040;51.332;12.406;2022-08-19T10:34:20;35.63;;;27.40;;
17830;SDS011;9040;51.332;12.406;2022-08-19T10:36:49;34.03;;;26.97;;
17830;SDS011;9040;51.332;12.406;2022-08-19T10:39:16;38.13;;;25.50;;
17830;SDS011;9040;51.332;12.406;2022-08-19T10:41:43;32.13;;;25.80;;
17830;SDS011;9040;51.332;12.406;2022-08-19T10:44:12;30.97;;;26.07;;
17830;SDS011;9040;51.332;12.406;2022-08-19T10:46:41;34.70;;;25.63;;
17830;SDS011;9040;51.332;12.406;2022-08-19T10:49:12;32.17;;;26.13;;
17830;SDS011;9040;51.332;12.406;2022-08-19T10:51:39;38.60;;;27.23;;
17830;SDS011;9040;51.332;12.406;2022-08-19T10:54:25;35.47;;;24.10;;
17830;SDS011;9040;51.332;12.406;2022-08-19T10:57:13;29.30;;;22.60;;
17830;SDS011;9040;51.332;12.406;2022-08-19T10:59:40;33.93;;;23.70;;
17830;SDS011;9040;51.332;12.406;2022-08-19T11:02:08;36.20;;;23.83;;
17830;SDS011;9040;51.332;12.406;2022-08-19T11:04:37;31.97;;;21.63;;
17830;SDS011;9040;51.332;12.406;2022-08-19T11:07:04;47.13;;;22.63;;
17830;SDS011;9040;51.332;12.406;2022-08-19T11:09:36;28.17;;;21.30;;
17830;SDS011;9040;51.332;12.406;2022-08-19T11:12:04;36.63;;;21.70;;
17830;SDS011;9040;51.332;12.406;2022-08-19T11:14:33;32.23;;;22.47;;
17830;SDS011;9040;51.332;12.406;2022-08-19T11:17:00;33.83;;;24.20;;
17830;SDS011;9040;51.332;12.406;2022-08-19T11:19:28;37.87;;;23.13;;
17830;SDS011;9040;51.332;12.406;2022-08-19T11:21:55;40.40;;;23.57;;
17830;SDS011;9040;51.332;12.406;2022-08-19T11:24:22;31.23;;;21.80;;
17830;SDS011;9040;51.332;12.406;2022-08-19T11:26:54;32.63;;;22.07;;
17830;SDS011;9040;51.332;12.406;2022-08-19T11:29:27;30.30;;;22.17;;
17830;SDS011;9040;51.332;12.406;2022-08-19T11:31:54;29.10;;;22.90;;
17830;SDS011;9040;51.332;12.406;2022-08-19T11:34:22;36.13;;;21.57;;
17830;SDS011;9040;51.332;12.406;2022-08-19T11:36:50;31.67;;;20.93;;
17830;SDS011;9040;51.332;12.406;2022-08-19T11:39:18;26.97;;;18.37;;
17830;SDS011;9040;51.332;12.406;2022-08-19T11:41:46;28.57;;;19.70;;
17830;SDS011;9040;51.332;12.406;2022-08-19T11:44:15;21.13;;;16.87;;
17830;SDS011;9040;51.332;12.406;2022-08-19T11:46:42;34.13;;;20.77;;
17830;SDS011;9040;51.332;12.406;2022-08-19T11:49:11;21.00;;;17.70;;
17830;SDS011;9040;51.332;12.406;2022-08-19T11:51:40;27.20;;;18.30;;
17830;SDS011;9040;51.332;12.406;2022-08-19T11:54:08;22.50;;;16.40;;
17830;SDS011;9040;51.332;12.406;2022-08-19T11:56:36;23.60;;;15.73;;
17830;SDS011;9040;51.332;12.406;2022-08-19T11:59:03;24.20;;;17.87;;
17830;SDS011;9040;51.332;12.406;2022-08-19T12:01:32;27.03;;;18.43;;
17830;SDS011;9040;51.332;12.406;2022-08-19T12:03:59;24.63;;;16.47;;
17830;SDS011;9040;51.332;12.406;2022-08-19T12:06:28;22.00;;;15.93;;
17830;SDS011;9040;51.332;12.406;2022-08-19T12:08:57;20.90;;;16.47;;
17830;SDS011;9040;51.332;12.406;2022-08-19T12:11:25;31.53;;;17.53;;
17830;SDS011;9040;51.332;12.406;2022-08-19T12:13:53;20.90;;;18.20;;
17830;SDS011;9040;51.332;12.406;2022-08-19T12:16:21;30.77;;;18.37;;
17830;SDS011;9040;51.332;12.406;2022-08-19T12:18:53;22.70;;;17.30;;
17830;SDS011;9040;51.332;12.406;2022-08-19T12:21:22;30.07;;;16.87;;
17830;SDS011;9040;51.332;12.406;2022-08-19T12:23:54;22.13;;;16.90;;
17830;SDS011;9040;51.332;12.406;2022-08-19T12:26:23;34.20;;;18.40;;
17830;SDS011;9040;51.332;12.406;2022-08-19T12:28:51;24.07;;;18.47;;
17830;SDS011;9040;51.332;12.406;2022-08-19T12:31:18;21.40;;;15.83;;
17830;SDS011;9040;51.332;12.406;2022-08-19T12:33:45;21.60;;;16.37;;
17830;SDS011;9040;51.332;12.406;2022-08-19T12:36:14;17.40;;;15.13;;
17830;SDS011;9040;51.332;12.406;2022-08-19T12:38:42;20.00;;;16.47;;
17830;SDS011;9040;51.332;12.406;2022-08-19T12:41:11;24.43;;;15.90;;
17830;SDS011;9040;51.332;12.406;2022-08-19T12:43:40;20.97;;;16.23;;
17830;SDS011;9040;51.332;12.406;2022-08-19T12:46:07;19.37;;;15.93;;
17830;SDS011;9040;51.332;12.406;2022-08-19T12:48:35;25.23;;;17.70;;
17830;SDS011;9040;51.332;12.406;2022-08-19T12:51:06;27.20;;;17.13;;
17830;SDS011;9040;51.332;12.406;2022-08-19T12:53:35;20.97;;;17.10;;
17830;SDS011;9040;51.332;12.406;2022-08-19T12:56:02;22.23;;;16.93;;
17830;SDS011;9040;51.332;12.406;2022-08-19T12:58:30;26.63;;;18.80;;
17830;SDS011;9040;51.332;12.406;2022-08-19T13:00:57;22.20;;;19.30;;
17830;SDS011;9040;51.332;12.406;2022-08-19T13:03:24;26.70;;;20.53;;
17830;SDS011;9040;51.332;12.406;2022-08-19T13:05:54;24.00;;;18.00;;
17830;SDS011;9040;51.332;12.406;2022-08-19T13:08:21;33.20;;;20.80;;
17830;SDS011;9040;51.332;12.406;2022-08-19T13:10:49;22.70;;;18.17;;
17830;SDS011;9040;51.332;12.406;2022-08-19T13:13:17;27.13;;;19.67;;
17830;SDS011;9040;51.332;12.406;2022-08-19T13:15:43;20.80;;;17.47;;
17830;SDS011;9040;51.332;12.406;2022-08-19T13:18:11;19.97;;;17.87;;
17830;SDS011;9040;51.332;12.406;2022-08-19T13:20:39;31.43;;;19.90;;
17830;SDS011;9040;51.332;12.406;2022-08-19T13:23:07;23.63;;;17.47;;
17830;SDS011;9040;51.332;12.406;2022-08-19T13:25:33;25.20;;;18.17;;
17830;SDS011;9040;51.332;12.406;2022-08-19T13:28:02;24.70;;;20.97;;
17830;SDS011;9040;51.332;12.406;2022-08-19T13:30:31;28.87;;;20.23;;
17830;SDS011;9040;51.332;12.406;2022-08-19T13:33:16;23.63;;;19.80;;
17830;SDS011;9040;51.332;12.406;2022-08-19T13:35:45;27.50;;;20.30;;
17830;SDS011;9040;51.332;12.406;2022-08-19T13:38:15;26.70;;;22.17;;
17830;SDS011;9040;51.332;12.406;2022-08-19T13:40:45;22.90;;;19.90;;
17830;SDS011;9040;51.332;12.406;2022-08-19T13:43:13;26.60;;;19.20;;
17830;SDS011;9040;51.332;12.406;2022-08-19T13:45:41;24.47;;;20.67;;
17830;SDS011;9040;51.332;12.406;2022-08-19T13:48:08;26.83;;;21.20;;
17830;SDS011;9040;51.332;12.406;2022-08-19T13:50:37;24.57;;;19.80;;
17830;SDS011;9040;51.332;12.406;2022-08-19T13:53:06;27.07;;;22.03;;
17830;SDS011;9040;51.332;12.406;2022-08-19T13:55:34;28.90;;;20.07;;
17830;SDS011;9040;51.332;12.406;2022-08-19T13:58:01;26.60;;;21.20;;
17830;SDS011;9040;51.332;12.406;2022-08-19T14:00:31;24.53;;;19.10;;
17830;SDS011;9040;51.332;12.406;2022-08-19T14:02:59;26.73;;;20.37;;
17830;SDS011;9040;51.332;12.406;2022-08-19T14:05:27;24.47;;;20.63;;
17830;SDS011;9040;51.332;12.406;2022-08-19T14:07:55;25.87;;;20.47;;
17830;SDS011;9040;51.332;12.406;2022-08-19T14:10:23;27.90;;;21.20;;
17830;SDS011;9040;51.332;12.406;2022-08-19T14:12:51;30.23;;;19.50;;
17830;SDS011;9040;51.332;12.406;2022-08-19T14:15:20;23.13;;;19.60;;
17830;SDS011;9040;51.332;12.406;2022-08-19T14:17:50;26.10;;;19.53;;
17830;SDS011;9040;51.332;12.406;2022-08-19T14:20:17;24.77;;;17.83;;
17830;SDS011;9040;51.332;12.406;2022-08-19T14:22:45;23.10;;;17.90;;
17830;SDS011;9040;51.332;12.406;2022-08-19T14:25:14;21.07;;;17.70;;
17830;SDS011;9040;51.332;12.406;2022-08-19T14:27:43;25.13;;;21.00;;
17830;SDS011;9040;51.332;12.406;2022-08-19T14:30:11;23.13;;;18.73;;